Academy, New Jersey
Current Conditions -  °F | °C
As of 12:51 AM on Monday 22 Dec 2014 (Local Time) from KEWR Reporting Station
Overcast Overcast  
Wind Chill: -2°   Ceiling: 2200
Heat Index:   Visibility: 10mi
Dew Point: -1°   Wind: 7mph
Humidity: 85%   Direction: 10°N
Pressure: 30.33"   Gusts: NA
Location:  40.7334°N, 74.1735°W
Report Text: KEWR 220551Z 01006KT 10SM SCT015 BKN022 OVC033 01/M01 A3033 RMK AO2 SLP269 T00111011 10022 20011 58001
Loading
Personal Weather Stations






























Interactive Weather Map New forecast layout! Learn more

10-Day Weather Forecast

Advertisements
Track Severe Weather on mobile